Home   Weather   Exmouth   Past weeks
Flag for Australia

Past Weather in Exmouth, Western Australia, Australia — Yesterday and Last 2 Weeks

Currently: 73 °F. Clear. (Weather station: Learmonth Airport, Australia). See more current weather

Past Weather in Exmouth — Graph

°F

Exmouth Temperature Yesterday

Maximum temperature yesterday: 100 °F (at 2:30 pm)
Minimum temperature yesterday: 68 °F (at 4:00 am)
Average temperature yesterday: 82 °F

High & Low Weather Summary for the Past Weeks

 TemperatureHumidityPressure
High100 °F (Nov 28, 2:30 pm)88% (Nov 16, 5:30 am)29.92 "Hg (Nov 16, 5:30 am)
Low54 °F (Nov 19, 5:30 am)5% (Nov 20, 1:30 pm)29.68 "Hg (Nov 15, 2:00 pm)
Average78 °F50%29.80 "Hg
* Reported Nov 14 12:00 am — Nov 29 12:00 am, Exmouth. Weather by CustomWeather, © 2022

Note: Actual official high and low records may vary slightly from our data, if they occured in-between our weather recording intervals... More about our weather records

Exmouth Weather History for the Previous 24 Hours

Scroll right to see more
 ConditionsComfort  
Time TempWeatherWind HumidityBarometerVisibility
12:00 am
Tue, Nov 29
73 °FClear.10 mph74%29.74 "HgN/A
11:30 pm
Mon, Nov 28
73 °FClear.10 mph69%29.77 "HgN/A
11:00 pm75 °FClear.12 mph69%29.77 "HgN/A
10:30 pm75 °FClear.13 mph69%29.77 "HgN/A
10:00 pm75 °FClear.16 mph69%29.74 "HgN/A
9:30 pm75 °FClear.15 mph69%29.74 "HgN/A
9:00 pm77 °FClear.16 mph69%29.74 "HgN/A
8:30 pm77 °FClear.15 mph65%29.74 "HgN/A
8:00 pm79 °FClear.16 mph61%29.74 "HgN/A
7:30 pm79 °FClear.17 mph58%29.71 "HgN/A
7:00 pm81 °FClear.17 mph51%29.71 "HgN/A
6:30 pm84 °FSunny.17 mph45%29.71 "HgN/A
6:00 pm86 °FSunny.20 mph40%29.71 "HgN/A
5:30 pm90 °FSunny.18 mph36%29.68 "HgN/A
5:00 pm91 °FSunny.20 mph34%29.68 "HgN/A
4:30 pm93 °FSunny.20 mph30%29.68 "HgN/A
4:00 pm99 °FSunny.16 mph22%29.68 "HgN/A
3:30 pm99 °FSunny.16 mph16%29.68 "HgN/A
3:00 pm100 °FSunny.12 mph14%29.68 "HgN/A
2:30 pm100 °FSunny.8 mph18%29.68 "HgN/A
2:00 pm99 °FSunny.9 mph11%29.68 "HgN/A
1:30 pm99 °FSunny.8 mph12%29.68 "HgN/A
1:00 pm99 °FSunny.9 mph14%29.71 "HgN/A
12:30 pm97 °FSunny.8 mph18%29.71 "HgN/A
12:00 pm95 °FSunny.12 mph23%29.71 "HgN/A
11:30 am95 °FSunny.12 mph20%29.74 "HgN/A
11:00 am97 °FSunny.10 mph22%29.74 "HgN/A
10:00 am93 °FSunny.6 mph23%29.74 "HgN/A
9:30 am90 °FSunny.8 mph29%29.77 "HgN/A
9:00 am86 °FSunny.9 mph40%29.77 "HgN/A
7:30 am75 °FSunny.14 mph61%29.77 "HgN/A
7:00 am72 °FSunny.15 mph73%29.74 "HgN/A
6:30 am70 °FSunny.15 mph78%29.74 "HgN/A
6:00 am68 °FSunny.12 mph83%29.74 "HgN/A
5:30 am68 °FSunny.13 mph83%29.74 "HgN/A
5:00 am68 °FClear.14 mph83%29.74 "HgN/A
4:30 am68 °FClear.13 mph83%29.74 "HgN/A
4:00 am68 °FClear.12 mph83%29.74 "HgN/A
3:30 am70 °FClear.14 mph78%29.74 "HgN/A
3:00 am70 °FClear.15 mph78%29.71 "HgN/A
2:00 am72 °FClear.15 mph73%29.74 "HgN/A
1:30 am72 °FClear.18 mph69%29.74 "HgN/A
1:00 am72 °FClear.18 mph73%29.74 "HgN/A
Weather by CustomWeather, © 2022

See weather overview